Time;durP1;ratioP1;P1;durP2;ratioP2;P2;SDS_P1;SDS_P2;PMS_P1;PMS_P2;Temp;Humidity;BMP_temperature;BMP_pressure;BME280_temperature;BME280_humidity;BME280_pressure;Samples;Min_cycle;Max_cycle;Signal;HPM_P1;HPM_P2
2022/11/13 00:00:36;;;;;;;0.70;0.70;;;3.20;99.90;;;;;;5020843;28;20041;-79
2022/11/13 00:03:02;;;;;;;0.60;0.60;;;3.20;99.90;;;;;;5019143;28;20061;-80
2022/11/13 00:05:28;;;;;;;0.70;0.70;;;3.20;99.90;;;;;;5018296;28;20049;-80
2022/11/13 00:07:54;;;;;;;0.65;0.65;;;3.20;99.90;;;;;;5017606;28;20867;-80
2022/11/13 00:10:19;;;;;;;0.60;0.60;;;3.20;99.90;;;;;;5018611;28;20042;-81
2022/11/13 00:12:45;;;;;;;0.80;0.80;;;3.30;99.90;;;;;;5017463;28;20060;-80
2022/11/13 00:15:11;;;;;;;0.63;0.63;;;3.40;99.90;;;;;;4997790;28;20041;-80
2022/11/13 00:17:36;;;;;;;0.70;0.70;;;3.30;99.90;;;;;;4994346;28;20056;-80
2022/11/13 00:20:03;;;;;;;0.70;0.70;;;3.40;99.90;;;;;;5010794;28;20130;-80
2022/11/13 00:22:28;;;;;;;0.70;0.70;;;3.50;99.90;;;;;;5012464;28;20037;-80
2022/11/13 00:24:54;;;;;;;0.73;0.73;;;3.50;99.90;;;;;;5013058;28;20466;-80
2022/11/13 00:27:20;;;;;;;0.80;0.80;;;3.50;99.90;;;;;;5029745;28;20041;-80
2022/11/13 00:29:45;;;;;;;0.57;0.57;;;3.50;99.90;;;;;;5013869;28;20065;-82
2022/11/13 00:32:11;;;;;;;0.70;0.70;;;3.50;99.90;;;;;;4996270;28;20053;-81
2022/11/13 00:34:37;;;;;;;0.68;0.68;;;3.60;99.90;;;;;;5010311;28;20060;-83
2022/11/13 00:37:02;;;;;;;0.70;0.70;;;3.60;99.90;;;;;;5014655;28;20479;-82
2022/11/13 00:39:29;;;;;;;0.77;0.77;;;3.70;99.90;;;;;;5018276;28;20052;-84
2022/11/13 00:41:54;;;;;;;0.63;0.63;;;3.80;99.90;;;;;;5019375;28;20041;-81
2022/11/13 00:44:21;;;;;;;0.60;0.60;;;3.80;99.90;;;;;;5013872;28;20037;-80
2022/11/13 00:46:46;;;;;;;0.68;0.68;;;3.80;99.90;;;;;;5014062;28;20044;-79
2022/11/13 00:49:12;;;;;;;0.60;0.60;;;3.80;99.90;;;;;;5018594;28;20098;-80
2022/11/13 00:51:38;;;;;;;0.75;0.75;;;4.00;99.90;;;;;;5013308;28;20095;-79
2022/11/13 00:54:03;;;;;;;0.70;0.70;;;3.90;99.90;;;;;;4996700;28;20482;-79
2022/11/13 00:56:29;;;;;;;0.75;0.75;;;3.90;99.90;;;;;;5014732;28;20049;-79
2022/11/13 00:58:55;;;;;;;0.60;0.60;;;4.00;99.90;;;;;;5030797;28;20045;-81
2022/11/13 01:01:21;;;;;;;0.70;0.70;;;4.00;99.90;;;;;;5015805;28;20041;-81
2022/11/13 01:03:46;;;;;;;0.70;0.57;;;4.10;99.90;;;;;;5017884;28;20084;-81
2022/11/13 01:06:24;;;;;;;0.73;0.73;;;4.40;99.90;;;;;;5019357;28;20041;-81
2022/11/13 01:08:54;;;;;;;0.70;0.70;;;4.20;99.90;;;;;;5024026;28;20116;-79
2022/11/13 01:11:25;;;;;;;0.70;0.70;;;4.30;99.90;;;;;;5023599;28;22383;-82
2022/11/13 01:13:52;;;;;;;0.70;0.70;;;4.30;99.90;;;;;;5019393;28;20060;-81
2022/11/13 01:16:21;;;;;;;0.47;0.47;;;4.40;99.90;;;;;;5025347;28;20049;-79
2022/11/13 01:18:47;;;;;;;0.60;0.60;;;4.40;99.90;;;;;;5026649;28;20379;-80
2022/11/13 01:21:21;;;;;;;1.15;1.15;;;4.50;99.90;;;;;;5004893;28;20046;-80
2022/11/13 01:23:47;;;;;;;0.70;0.70;;;4.60;99.90;;;;;;5026772;28;20076;-81
2022/11/13 01:26:19;;;;;;;0.52;0.52;;;4.60;99.90;;;;;;5025788;28;20037;-79
2022/11/13 01:28:46;;;;;;;0.70;0.70;;;4.70;99.90;;;;;;5038311;28;20053;-80
2022/11/13 01:31:15;;;;;;;0.50;0.50;;;4.70;99.90;;;;;;5026100;28;20045;-79
2022/11/13 01:33:41;;;;;;;0.70;0.70;;;4.80;99.90;;;;;;5026188;28;20566;-79
2022/11/13 01:36:09;;;;;;;;;;;4.80;99.90;;;;;;5034204;28;20068;-81
2022/11/13 01:38:35;;;;;;;0.65;0.65;;;4.80;99.90;;;;;;5022379;28;19924;-80
2022/11/13 01:41:01;;;;;;;0.57;0.57;;;4.80;99.90;;;;;;5023957;28;20046;-80
2022/11/13 01:43:28;;;;;;;0.60;0.60;;;4.90;99.90;;;;;;5021147;28;20100;-82
2022/11/13 01:45:57;;;;;;;0.73;0.73;;;5.10;99.90;;;;;;5023447;28;20041;-80
2022/11/13 01:48:27;;;;;;;0.60;0.60;;;5.00;99.90;;;;;;5020328;28;20076;-81
2022/11/13 01:50:54;;;;;;;0.57;0.57;;;5.00;99.90;;;;;;5004040;28;20041;-80
2022/11/13 01:53:19;;;;;;;;;;;5.00;99.90;;;;;;5018785;28;20037;-81
2022/11/13 01:55:45;;;;;;;1.58;1.58;;;5.10;99.90;;;;;;5018979;28;21413;-81
2022/11/13 01:58:12;;;;;;;0.50;0.50;;;5.10;99.90;;;;;;5035594;28;20053;-80
2022/11/13 02:00:37;;;;;;;0.60;0.60;;;5.30;99.90;;;;;;5037823;28;20043;-80
2022/11/13 02:03:04;;;;;;;0.60;0.60;;;5.20;99.90;;;;;;5006876;28;20049;-81
2022/11/13 02:05:33;;;;;;;0.70;0.70;;;5.10;99.90;;;;;;5023663;28;20045;-81
2022/11/13 02:07:59;;;;;;;0.50;0.50;;;5.20;99.90;;;;;;5025096;28;20537;-81
2022/11/13 02:10:25;;;;;;;0.63;0.63;;;5.10;99.90;;;;;;5026488;28;20095;-79
2022/11/13 02:12:51;;;;;;;0.50;0.50;;;5.20;99.90;;;;;;5023895;28;20048;-80
2022/11/13 02:15:22;;;;;;;0.50;0.50;;;5.20;99.90;;;;;;5024235;28;20037;-80
2022/11/13 02:17:53;;;;;;;0.60;0.60;;;5.20;99.90;;;;;;5023254;28;20056;-79
2022/11/13 02:20:35;;;;;;;0.50;0.50;;;5.20;99.90;;;;;;5003587;28;20053;-80
2022/11/13 02:23:23;;;;;;;0.55;0.55;;;5.10;99.90;;;;;;5022482;28;20458;-80
2022/11/13 02:25:52;;;;;;;0.45;0.45;;;5.20;99.90;;;;;;5021368;28;20042;-81
2022/11/13 02:28:18;;;;;;;0.47;0.47;;;5.20;99.90;;;;;;5023036;28;21766;-80
2022/11/13 02:30:43;;;;;;;0.60;0.60;;;5.50;99.90;;;;;;5024982;28;20267;-80
2022/11/13 02:33:25;;;;;;;0.50;0.50;;;5.10;99.90;;;;;;5007413;28;20041;-81
2022/11/13 02:35:51;;;;;;;0.47;0.47;;;5.10;99.90;;;;;;5023614;28;20033;-81
2022/11/13 02:38:16;;;;;;;0.55;0.55;;;5.20;99.90;;;;;;5000429;28;20041;-81
2022/11/13 02:40:42;;;;;;;0.60;0.60;;;6.40;99.90;;;;;;5000708;28;20045;-80
2022/11/13 02:43:08;;;;;;;0.60;0.60;;;5.10;99.90;;;;;;5019931;28;20048;-80
2022/11/13 02:45:33;;;;;;;0.55;0.55;;;5.10;99.90;;;;;;5018265;28;20045;-79
2022/11/13 02:48:00;;;;;;;0.50;0.50;;;5.30;99.90;;;;;;5021242;28;20029;-80
2022/11/13 02:50:26;;;;;;;0.40;0.40;;;5.10;99.90;;;;;;5004242;28;20056;-80
2022/11/13 02:52:51;;;;;;;0.50;0.50;;;5.10;99.90;;;;;;5034682;28;20475;-82
2022/11/13 02:55:17;;;;;;;0.50;0.50;;;5.40;99.90;;;;;;5027848;28;20040;-80
2022/11/13 02:57:43;;;;;;;;;;;5.10;99.90;;;;;;5028280;28;20444;-80
2022/11/13 03:00:09;;;;;;;0.40;0.40;;;5.10;99.90;;;;;;5026968;28;20383;-80
2022/11/13 03:02:35;;;;;;;0.45;0.45;;;5.10;99.90;;;;;;5027532;28;20076;-79
2022/11/13 03:05:01;;;;;;;0.50;0.50;;;5.10;99.90;;;;;;5009481;28;20085;-82
2022/11/13 03:07:26;;;;;;;0.50;0.50;;;5.10;99.90;;;;;;5028218;28;20087;-80
2022/11/13 03:09:52;;;;;;;0.63;0.63;;;5.10;99.90;;;;;;5015852;28;20049;-82
2022/11/13 03:12:18;;;;;;;0.60;0.60;;;5.10;99.90;;;;;;4999509;28;20091;-82
2022/11/13 03:14:43;;;;;;;0.50;0.50;;;5.10;99.90;;;;;;5030610;28;20068;-80
2022/11/13 03:17:09;;;;;;;0.50;0.50;;;5.10;99.90;;;;;;5029276;28;20459;-81
2022/11/13 03:19:34;;;;;;;0.60;0.60;;;5.10;99.90;;;;;;5027865;28;20061;-80
2022/11/13 03:22:00;;;;;;;0.60;0.60;;;5.10;99.90;;;;;;5026193;28;20176;-83
2022/11/13 03:24:26;;;;;;;0.60;0.60;;;5.10;99.90;;;;;;5024695;28;20057;-80
2022/11/13 03:26:51;;;;;;;0.55;0.55;;;5.20;99.90;;;;;;5023135;28;20470;-79
2022/11/13 03:29:17;;;;;;;0.60;0.60;;;5.20;99.90;;;;;;5022883;28;20037;-82
2022/11/13 03:31:43;;;;;;;0.60;0.60;;;5.30;99.90;;;;;;5023733;28;20048;-81
2022/11/13 03:34:08;;;;;;;0.68;0.68;;;5.10;99.90;;;;;;5024289;28;20068;-81
2022/11/13 03:36:34;;;;;;;0.60;0.60;;;5.00;99.90;;;;;;5031092;28;20045;-81
2022/11/13 03:38:59;;;;;;;0.60;0.60;;;5.10;99.90;;;;;;5025458;28;20092;-81
2022/11/13 03:41:25;;;;;;;0.60;0.60;;;5.00;99.90;;;;;;5027724;28;20053;-80
2022/11/13 03:43:51;;;;;;;0.70;0.70;;;5.00;99.90;;;;;;5011476;28;20061;-81
2022/11/13 03:46:17;;;;;;;0.60;0.60;;;5.00;99.90;;;;;;5027163;28;20045;-82
2022/11/13 03:48:42;;;;;;;0.63;0.63;;;5.10;99.90;;;;;;5028779;28;20515;-82
2022/11/13 03:51:08;;;;;;;0.60;0.60;;;5.00;99.90;;;;;;5023189;28;20073;-79
2022/11/13 03:53:34;;;;;;;0.52;0.52;;;5.00;99.90;;;;;;5023267;28;20084;-80
2022/11/13 03:55:59;;;;;;;0.55;0.55;;;5.00;99.90;;;;;;5007054;28;20037;-80
2022/11/13 03:58:25;;;;;;;0.60;0.60;;;5.30;99.90;;;;;;5024025;28;20438;-79
2022/11/13 04:00:55;;;;;;;0.52;0.52;;;5.00;99.90;;;;;;5024216;28;20038;-81
2022/11/13 04:03:22;;;;;;;0.40;0.40;;;5.00;99.90;;;;;;5023001;28;20138;-79
2022/11/13 04:05:48;;;;;;;;;;;5.00;99.90;;;;;;5025847;28;20487;-80
2022/11/13 04:08:15;;;;;;;0.60;0.60;;;5.00;99.90;;;;;;5027290;28;20315;-80
2022/11/13 04:10:41;;;;;;;0.47;0.47;;;5.00;99.90;;;;;;5027116;28;20026;-80
2022/11/13 04:13:07;;;;;;;0.55;0.55;;;5.00;99.90;;;;;;5026299;28;20494;-80
2022/11/13 04:15:33;;;;;;;;;;;5.00;99.90;;;;;;5023577;28;20037;-79
2022/11/13 04:17:59;;;;;;;0.50;0.50;;;5.00;99.90;;;;;;5006972;28;19924;-79
2022/11/13 04:20:26;;;;;;;0.65;0.65;;;5.10;99.90;;;;;;5024125;28;20148;-79
2022/11/13 04:22:52;;;;;;;0.50;0.50;;;5.00;99.90;;;;;;5021931;28;20562;-80
2022/11/13 04:25:18;;;;;;;0.60;0.60;;;5.10;99.90;;;;;;5023782;28;20037;-81
2022/11/13 04:27:44;;;;;;;0.52;0.52;;;5.00;99.90;;;;;;5023716;28;20047;-82
2022/11/13 04:30:10;;;;;;;0.60;0.60;;;5.00;99.90;;;;;;5024358;28;20037;-81
2022/11/13 04:32:36;;;;;;;0.50;0.50;;;5.00;99.90;;;;;;5004149;28;20037;-81
2022/11/13 04:35:01;;;;;;;0.60;0.60;;;5.00;99.90;;;;;;5021265;28;20045;-80
2022/11/13 04:37:27;;;;;;;0.55;0.55;;;5.00;99.90;;;;;;5024040;28;20041;-82
2022/11/13 04:39:53;;;;;;;0.65;0.65;;;5.00;99.90;;;;;;5027863;28;20116;-80
2022/11/13 04:45:03;;;;;;;0.63;0.63;;;5.00;99.90;;;;;;5021854;28;20479;-81
2022/11/13 04:47:29;;;;;;;0.63;0.63;;;5.00;99.90;;;;;;5018377;28;20042;-80
2022/11/13 04:49:54;;;;;;;0.60;0.60;;;4.90;99.90;;;;;;5020271;28;20047;-79
2022/11/13 04:52:20;;;;;;;0.52;0.52;;;4.90;99.90;;;;;;5025975;28;20037;-82
2022/11/13 04:54:46;;;;;;;0.70;0.70;;;4.90;99.90;;;;;;5020255;28;20139;-80
2022/11/13 04:57:11;;;;;;;0.60;0.60;;;4.90;99.90;;;;;;5018329;28;20536;-81
2022/11/13 04:59:37;;;;;;;0.60;0.60;;;4.90;99.90;;;;;;5019990;28;20107;-81
2022/11/13 05:02:03;;;;;;;0.65;0.65;;;4.80;99.90;;;;;;5005068;28;20041;-82
2022/11/13 05:04:29;;;;;;;;;;;4.80;99.90;;;;;;5024349;28;20140;-81
2022/11/13 05:06:55;;;;;;;0.68;0.68;;;4.80;99.90;;;;;;5022865;28;20437;-80
2022/11/13 05:09:20;;;;;;;0.57;0.57;;;4.70;99.90;;;;;;5023554;28;20033;-81
2022/11/13 05:11:46;;;;;;;0.60;0.60;;;4.80;99.90;;;;;;5017154;28;20103;-80
2022/11/13 05:14:12;;;;;;;0.68;0.68;;;4.70;99.90;;;;;;5008052;28;20053;-80
2022/11/13 05:16:38;;;;;;;0.60;0.60;;;4.70;99.90;;;;;;5023849;28;20049;-80
2022/11/13 05:19:07;;;;;;;0.68;0.68;;;4.70;99.90;;;;;;5024704;28;20072;-79
2022/11/13 05:21:37;;;;;;;0.63;0.63;;;4.70;99.90;;;;;;5024009;28;20071;-79
2022/11/13 05:24:04;;;;;;;0.60;0.60;;;4.60;99.90;;;;;;5021942;28;20045;-80
2022/11/13 05:26:30;;;;;;;0.50;0.50;;;4.60;99.90;;;;;;5022761;28;20041;-81
2022/11/13 05:28:57;;;;;;;4.85;2.28;;;4.60;99.90;;;;;;5024079;28;20116;-81
2022/11/13 05:31:24;;;;;;;0.60;0.60;;;4.80;99.90;;;;;;5026918;28;20048;-80
2022/11/13 05:33:50;;;;;;;0.68;0.68;;;4.50;99.90;;;;;;5002823;28;20042;-80
2022/11/13 05:36:17;;;;;;;0.73;0.73;;;4.50;99.90;;;;;;5018478;28;20044;-80
2022/11/13 05:38:43;;;;;;;0.60;0.60;;;4.50;99.90;;;;;;5032330;28;20544;-80
2022/11/13 05:41:15;;;;;;;0.50;0.50;;;4.40;99.90;;;;;;5027271;28;20491;-81
2022/11/13 05:43:41;;;;;;;0.60;0.60;;;4.40;99.90;;;;;;5024648;28;20029;-80
2022/11/13 05:46:28;;;;;;;0.60;0.60;;;4.40;99.90;;;;;;5022517;28;20120;-80
2022/11/13 05:48:56;;;;;;;0.77;0.77;;;4.30;99.90;;;;;;5018127;28;20072;-81
2022/11/13 05:51:26;;;;;;;0.60;0.60;;;4.30;99.90;;;;;;5018303;28;20041;-79
2022/11/13 05:53:52;;;;;;;0.50;0.50;;;4.20;99.90;;;;;;5019176;28;22027;-80
2022/11/13 05:56:27;;;;;;;0.70;0.70;;;4.20;99.90;;;;;;5020969;28;20060;-80
2022/11/13 05:58:54;;;;;;;0.70;0.70;;;4.10;99.90;;;;;;5021145;28;20045;-79
2022/11/13 06:01:23;;;;;;;0.50;0.50;;;4.10;99.90;;;;;;5025746;28;20034;-79
2022/11/13 06:03:50;;;;;;;0.60;0.60;;;4.10;99.90;;;;;;5025746;28;20513;-79
2022/11/13 06:06:18;;;;;;;0.60;0.60;;;4.10;99.90;;;;;;5037804;28;20049;-79
2022/11/13 06:08:45;;;;;;;0.50;0.50;;;4.10;99.90;;;;;;5021007;28;20123;-81
2022/11/13 06:11:14;;;;;;;0.60;0.60;;;4.10;99.90;;;;;;5039500;28;20464;-80
2022/11/13 06:13:40;;;;;;;0.70;0.70;;;4.00;99.90;;;;;;5022304;28;20044;-80
2022/11/13 06:16:09;;;;;;;0.60;0.60;;;4.10;99.90;;;;;;5022601;28;20041;-80
2022/11/13 06:18:35;;;;;;;0.60;0.60;;;4.10;99.90;;;;;;5021668;28;20056;-79
2022/11/13 06:21:03;;;;;;;0.60;0.60;;;4.10;99.90;;;;;;5021920;28;20057;-82
2022/11/13 06:23:28;;;;;;;0.60;0.60;;;4.00;99.90;;;;;;5018553;28;20037;-82
2022/11/13 06:26:09;;;;;;;0.65;0.65;;;4.00;99.90;;;;;;5021455;28;20038;-80
2022/11/13 06:28:35;;;;;;;0.68;0.68;;;4.00;99.90;;;;;;5022863;28;20068;-81
2022/11/13 06:31:02;;;;;;;;;;;4.00;99.90;;;;;;5026981;28;20041;-79
2022/11/13 06:33:28;;;;;;;0.60;0.60;;;3.90;99.90;;;;;;5028723;28;19920;-82
2022/11/13 06:35:53;;;;;;;0.60;0.60;;;3.90;99.90;;;;;;5022600;28;20045;-79
2022/11/13 06:38:19;;;;;;;0.63;0.63;;;3.80;99.90;;;;;;5021974;28;20045;-80
2022/11/13 06:40:44;;;;;;;0.70;0.70;;;4.00;99.90;;;;;;5005935;28;20060;-79
2022/11/13 06:43:11;;;;;;;0.60;0.60;;;3.70;99.90;;;;;;5020799;28;20033;-79
2022/11/13 06:45:42;;;;;;;0.60;0.60;;;3.60;99.90;;;;;;5008910;28;20075;-79
2022/11/13 06:48:08;;;;;;;0.50;0.50;;;3.60;99.90;;;;;;5023188;28;20215;-80
2022/11/13 06:50:33;;;;;;;1.00;1.00;;;3.60;99.90;;;;;;4991566;28;20044;-79
2022/11/13 06:52:59;;;;;;;0.65;0.65;;;3.60;99.90;;;;;;5006862;28;20038;-79
2022/11/13 06:55:25;;;;;;;0.77;0.77;;;3.50;99.90;;;;;;5020626;28;20049;-79
2022/11/13 06:57:50;;;;;;;0.77;0.77;;;3.40;99.90;;;;;;5023560;28;20410;-81
2022/11/13 07:00:17;;;;;;;0.75;0.75;;;3.40;99.90;;;;;;5009721;28;20171;-81
2022/11/13 07:02:42;;;;;;;;;;;3.30;99.90;;;;;;5023906;28;20049;-80
2022/11/13 07:05:08;;;;;;;0.60;0.60;;;3.30;99.90;;;;;;5021866;28;19929;-81
2022/11/13 07:07:34;;;;;;;0.80;0.80;;;3.20;99.90;;;;;;5022674;28;20033;-80
2022/11/13 07:09:59;;;;;;;0.68;0.68;;;3.30;99.90;;;;;;5023330;28;20520;-81
2022/11/13 07:12:27;;;;;;;0.60;0.60;;;3.20;99.90;;;;;;5007286;28;20402;-79
2022/11/13 07:14:52;;;;;;;0.70;0.70;;;3.30;99.90;;;;;;5007984;28;20049;-79
2022/11/13 07:17:18;;;;;;;0.60;0.60;;;3.20;99.90;;;;;;5023582;28;20124;-79
2022/11/13 07:19:44;;;;;;;0.80;0.80;;;3.20;99.90;;;;;;5023027;28;20041;-80
2022/11/13 07:22:09;;;;;;;0.70;0.70;;;3.20;99.90;;;;;;5019341;28;20142;-80
2022/11/13 07:24:35;;;;;;;0.60;0.60;;;3.20;99.90;;;;;;5023111;28;20049;-78
2022/11/13 07:27:00;;;;;;;0.60;0.60;;;3.20;99.90;;;;;;5022748;28;20049;-81
2022/11/13 07:29:26;;;;;;;0.77;0.77;;;3.20;99.90;;;;;;5023695;28;20128;-79
2022/11/13 07:31:52;;;;;;;0.60;0.60;;;3.30;99.90;;;;;;5006954;28;20111;-82
2022/11/13 07:34:18;;;;;;;0.50;0.50;;;3.30;99.90;;;;;;5021706;28;20041;-81
2022/11/13 07:36:43;;;;;;;0.80;0.80;;;3.40;99.90;;;;;;5005338;28;20444;-78
2022/11/13 07:39:09;;;;;;;1.77;1.55;;;3.50;99.90;;;;;;5040738;28;20064;-80
2022/11/13 07:41:34;;;;;;;0.70;0.70;;;3.50;99.90;;;;;;5006073;28;20047;-78
2022/11/13 07:44:00;;;;;;;0.70;0.70;;;3.60;99.90;;;;;;5021715;28;20060;-79
2022/11/13 07:46:26;;;;;;;0.70;0.70;;;3.60;99.90;;;;;;5023052;28;20130;-80
2022/11/13 07:48:51;;;;;;;0.70;0.70;;;3.70;99.90;;;;;;5037570;28;20484;-82
2022/11/13 07:51:17;;;;;;;0.80;0.80;;;3.80;99.90;;;;;;5006824;28;20101;-80
2022/11/13 07:53:43;;;;;;;0.73;0.73;;;4.00;99.90;;;;;;5000115;28;20053;-81
2022/11/13 07:56:08;;;;;;;0.68;0.68;;;3.90;99.90;;;;;;5016448;28;20048;-80
2022/11/13 07:58:34;;;;;;;0.75;0.75;;;4.00;99.90;;;;;;5003263;28;20033;-80
2022/11/13 08:01:04;;;;;;;0.70;0.70;;;4.10;99.90;;;;;;5021602;28;20094;-81
2022/11/13 08:03:31;;;;;;;0.60;0.60;;;4.20;99.90;;;;;;5020947;28;20077;-83
2022/11/13 08:06:03;;;;;;;0.70;0.70;;;4.20;99.90;;;;;;5018597;28;20053;-80
2022/11/13 08:08:30;;;;;;;0.70;0.70;;;4.30;99.90;;;;;;5005790;28;20132;-80
2022/11/13 08:10:56;;;;;;;0.68;0.68;;;4.30;99.90;;;;;;5004721;28;20040;-80
2022/11/13 08:13:21;;;;;;;;;;;4.40;99.90;;;;;;5022805;28;20045;-79
2022/11/13 08:15:47;;;;;;;0.60;0.60;;;4.40;99.90;;;;;;5023545;28;19995;-79
2022/11/13 08:18:13;;;;;;;0.70;0.70;;;4.50;99.90;;;;;;5021896;28;20053;-79
2022/11/13 08:20:38;;;;;;;0.50;0.50;;;4.60;99.90;;;;;;5022108;28;20077;-81
2022/11/13 08:23:04;;;;;;;0.70;0.70;;;4.60;99.90;;;;;;4990282;28;20041;-82
2022/11/13 08:25:31;;;;;;;0.70;0.70;;;4.70;99.90;;;;;;5021277;28;20075;-82
2022/11/13 08:27:57;;;;;;;0.47;0.47;;;5.00;99.90;;;;;;5021963;28;20044;-80
2022/11/13 08:30:24;;;;;;;;;;;4.90;99.90;;;;;;5005951;28;20191;-82
2022/11/13 08:32:50;;;;;;;0.60;0.60;;;5.00;99.90;;;;;;5017791;28;19923;-80
2022/11/13 08:35:16;;;;;;;0.60;0.60;;;5.00;99.90;;;;;;5006806;28;20511;-80
2022/11/13 08:37:42;;;;;;;0.55;0.55;;;5.10;99.90;;;;;;5021667;28;20106;-81
2022/11/13 08:40:08;;;;;;;0.60;0.60;;;5.20;99.90;;;;;;5008495;28;20053;-81
2022/11/13 08:42:34;;;;;;;0.60;0.60;;;5.20;99.90;;;;;;5023128;28;20098;-80
2022/11/13 08:45:00;;;;;;;0.60;0.60;;;5.30;99.90;;;;;;5023543;28;20546;-82
2022/11/13 08:47:28;;;;;;;0.60;0.60;;;5.40;99.90;;;;;;5025149;28;20041;-81
2022/11/13 08:49:54;;;;;;;0.50;0.50;;;5.40;99.90;;;;;;5008553;28;20162;-81
2022/11/13 08:52:26;;;;;;;0.45;0.45;;;5.60;99.90;;;;;;5011127;28;20053;-80
2022/11/13 08:54:52;;;;;;;0.63;0.63;;;5.70;99.90;;;;;;5020883;28;20479;-82
2022/11/13 08:57:17;;;;;;;0.70;0.70;;;5.80;99.90;;;;;;5022226;28;20566;-80
2022/11/13 08:59:43;;;;;;;0.60;0.60;;;5.90;99.90;;;;;;5022824;28;20045;-82
2022/11/13 09:02:13;;;;;;;0.60;0.60;;;6.00;99.90;;;;;;5037900;28;20049;-81
2022/11/13 09:04:39;;;;;;;0.50;0.50;;;6.10;99.90;;;;;;5022721;28;20065;-81
2022/11/13 09:07:05;;;;;;;0.50;0.50;;;6.20;99.90;;;;;;5003448;28;20080;-81
2022/11/13 09:09:30;;;;;;;0.50;0.50;;;6.40;99.90;;;;;;5022364;28;20037;-82
2022/11/13 09:11:56;;;;;;;0.50;0.50;;;6.40;99.90;;;;;;5020807;28;20041;-82
2022/11/13 09:14:23;;;;;;;0.52;0.52;;;6.50;99.90;;;;;;5020198;28;20049;-83
2022/11/13 09:16:49;;;;;;;0.52;0.52;;;6.60;99.90;;;;;;5021978;28;20064;-82
2022/11/13 09:19:15;;;;;;;0.50;0.50;;;6.70;99.90;;;;;;5033923;28;20037;-83
2022/11/13 09:21:41;;;;;;;0.50;0.50;;;6.80;99.90;;;;;;5016839;28;20141;-81
2022/11/13 09:24:06;;;;;;;0.60;0.60;;;6.90;99.90;;;;;;5018373;28;20046;-81
2022/11/13 09:26:34;;;;;;;0.60;0.60;;;7.00;99.90;;;;;;5012476;28;20044;-81
2022/11/13 09:29:00;;;;;;;0.60;0.60;;;7.10;99.90;;;;;;5018242;28;20030;-81
2022/11/13 09:31:26;;;;;;;0.50;0.50;;;7.10;99.90;;;;;;5018359;28;20049;-81
2022/11/13 09:33:51;;;;;;;0.40;0.40;;;7.20;99.90;;;;;;5017072;28;20123;-81
2022/11/13 09:36:17;;;;;;;0.60;0.60;;;7.30;99.90;;;;;;5018121;28;20069;-82
2022/11/13 09:38:43;;;;;;;0.40;0.40;;;7.30;99.90;;;;;;5002262;28;20297;-80
2022/11/13 09:41:11;;;;;;;0.75;0.75;;;7.40;99.90;;;;;;5024679;28;20115;-81
2022/11/13 09:43:59;;;;;;;0.50;0.50;;;7.50;99.90;;;;;;5018726;28;20045;-80
2022/11/13 09:46:42;;;;;;;0.60;0.60;;;7.60;99.90;;;;;;5000329;28;20479;-81
2022/11/13 09:49:08;;;;;;;0.40;0.40;;;7.70;99.90;;;;;;5022996;28;20420;-82
2022/11/13 09:51:37;;;;;;;0.60;0.60;;;7.70;99.90;;;;;;5024872;28;20071;-82
2022/11/13 09:54:12;;;;;;;0.57;0.57;;;7.80;99.90;;;;;;5021083;28;20041;-83
2022/11/13 09:56:56;;;;;;;0.40;0.40;;;7.90;99.90;;;;;;5021628;28;20871;-82
2022/11/13 09:59:38;;;;;;;0.47;0.47;;;7.90;99.90;;;;;;5023065;28;20033;-81
2022/11/13 10:02:07;;;;;;;0.50;0.50;;;7.90;99.90;;;;;;5024444;28;20049;-81
2022/11/13 10:04:58;;;;;;;0.50;0.50;;;8.00;99.90;;;;;;5022904;28;20061;-82
2022/11/13 10:07:44;;;;;;;0.57;0.57;;;8.10;99.90;;;;;;5019228;28;20128;-82
2022/11/13 10:10:31;;;;;;;0.50;0.50;;;8.20;99.90;;;;;;5016357;28;20124;-82
2022/11/13 10:12:58;;;;;;;0.50;0.50;;;8.30;99.90;;;;;;5039257;28;20053;-81
2022/11/13 10:15:25;;;;;;;2.38;2.05;;;8.40;99.90;;;;;;5006428;28;20042;-82
2022/11/13 10:17:58;;;;;;;0.50;0.50;;;8.50;99.90;;;;;;5023800;28;20037;-81
2022/11/13 10:20:42;;;;;;;0.40;0.40;;;8.60;99.90;;;;;;5022633;28;20511;-81
2022/11/13 10:23:17;;;;;;;0.55;0.55;;;8.60;99.90;;;;;;5019169;28;21228;-81
2022/11/13 10:25:43;;;;;;;0.45;0.45;;;8.70;99.90;;;;;;5017966;28;20037;-82
2022/11/13 10:28:18;;;;;;;0.50;0.50;;;8.80;99.90;;;;;;5023611;28;20456;-82
2022/11/13 10:30:45;;;;;;;0.52;0.52;;;8.80;99.90;;;;;;5004853;28;20487;-81
2022/11/13 10:33:16;;;;;;;0.57;0.57;;;8.90;99.90;;;;;;5022597;28;20080;-83
2022/11/13 10:36:31;;;;;;;0.60;0.60;;;9.00;99.90;;;;;;5021028;28;20052;-85
2022/11/13 10:39:07;;;;;;;0.40;0.40;;;9.00;99.90;;;;;;5020806;28;20055;-83
2022/11/13 10:41:47;;;;;;;0.43;0.43;;;9.10;99.90;;;;;;5023720;28;20111;-82
2022/11/13 10:44:33;;;;;;;0.73;0.73;;;9.10;99.90;;;;;;5023171;28;20499;-84
2022/11/13 10:47:15;;;;;;;0.47;0.47;;;9.10;99.90;;;;;;5027631;28;20552;-83
2022/11/13 10:49:41;;;;;;;0.40;0.40;;;9.20;99.90;;;;;;5030955;28;20506;-82
2022/11/13 10:52:25;;;;;;;0.38;0.38;;;9.20;99.90;;;;;;5008518;28;20647;-83
2022/11/13 10:55:04;;;;;;;0.40;0.40;;;9.20;99.90;;;;;;5003100;28;20045;-83
2022/11/13 10:57:33;;;;;;;0.30;0.30;;;9.80;99.90;;;;;;5018867;28;20450;-83
2022/11/13 10:59:59;;;;;;;0.57;0.57;;;9.40;99.90;;;;;;5017425;28;20052;-83
2022/11/13 11:02:26;;;;;;;0.45;0.45;;;9.40;99.90;;;;;;5001231;28;20053;-84
2022/11/13 11:05:04;;;;;;;0.50;0.50;;;9.40;99.90;;;;;;5004575;28;20073;-82
2022/11/13 11:07:39;;;;;;;0.30;0.30;;;9.30;99.90;;;;;;5018952;28;20033;-84
2022/11/13 11:10:25;;;;;;;0.40;0.40;;;9.40;99.90;;;;;;5020977;28;20479;-83
2022/11/13 11:12:56;;;;;;;0.40;0.40;;;9.40;99.90;;;;;;5022575;28;20085;-83
2022/11/13 11:15:49;;;;;;;0.45;0.45;;;9.50;99.90;;;;;;5031184;28;20133;-82
2022/11/13 11:18:33;;;;;;;0.55;0.55;;;9.50;99.90;;;;;;5030461;28;20045;-85
2022/11/13 11:21:04;;;;;;;0.40;0.40;;;9.50;99.90;;;;;;5023252;28;20091;-83
2022/11/13 11:23:43;;;;;;;0.45;0.45;;;9.60;99.90;;;;;;5007404;28;20471;-83
2022/11/13 11:26:17;;;;;;;0.40;0.40;;;9.60;99.90;;;;;;5022815;28;20048;-82
2022/11/13 11:28:48;;;;;;;0.35;0.35;;;9.60;99.90;;;;;;5013559;28;20045;-83
2022/11/13 11:31:30;;;;;;;0.52;0.52;;;9.70;99.90;;;;;;5024873;28;20072;-82
2022/11/13 11:34:14;;;;;;;1.10;1.10;;;9.70;99.90;;;;;;5024196;28;20045;-83
2022/11/13 11:36:48;;;;;;;0.40;0.40;;;9.80;99.90;;;;;;5023506;28;20075;-84
2022/11/13 11:39:32;;;;;;;0.60;0.60;;;9.80;99.90;;;;;;5028084;28;20041;-84
2022/11/13 11:42:29;;;;;;;0.32;0.32;;;9.90;99.90;;;;;;5049402;28;20045;-83
2022/11/13 11:45:15;;;;;;;0.43;0.43;;;10.00;99.90;;;;;;5030149;28;20049;-83
2022/11/13 11:47:42;;;;;;;0.40;0.40;;;10.10;99.90;;;;;;5053009;28;20049;-84
2022/11/13 11:50:17;;;;;;;0.40;0.40;;;10.10;99.90;;;;;;5029760;28;20382;-85
2022/11/13 11:52:55;;;;;;;0.40;0.40;;;10.30;99.90;;;;;;5033651;28;20041;-84
2022/11/13 11:55:55;;;;;;;0.60;0.60;;;10.40;99.90;;;;;;5030696;28;20045;-83
2022/11/13 11:59:06;;;;;;;0.50;0.50;;;10.60;99.90;;;;;;5025159;28;20045;-83
2022/11/13 12:02:02;;;;;;;0.30;0.30;;;10.80;99.90;;;;;;5024856;28;20148;-84
2022/11/13 12:04:53;;;;;;;0.30;0.30;;;11.00;99.90;;;;;;5020895;28;20076;-84
2022/11/13 12:07:37;;;;;;;0.30;0.30;;;11.20;99.90;;;;;;5008446;28;20053;-84
2022/11/13 12:10:23;;;;;;;0.40;0.40;;;11.40;99.90;;;;;;5039234;28;20490;-84
2022/11/13 12:13:13;;;;;;;0.90;0.90;;;11.50;99.90;;;;;;5007489;28;20041;-85
2022/11/13 12:16:03;;;;;;;0.43;0.43;;;11.70;99.90;;;;;;5019902;28;20067;-84
2022/11/13 12:19:06;;;;;;;0.30;0.30;;;11.90;99.90;;;;;;5018664;28;20045;-83
2022/11/13 12:21:50;;;;;;;0.40;0.40;;;12.10;99.90;;;;;;5022176;28;20033;-85
2022/11/13 12:24:35;;;;;;;0.60;0.60;;;12.20;99.90;;;;;;5023011;28;20501;-83
2022/11/13 12:27:15;;;;;;;0.22;0.22;;;12.30;99.90;;;;;;5005551;28;20046;-83
2022/11/13 12:30:04;;;;;;;0.35;0.35;;;12.40;99.90;;;;;;5023827;28;20043;-82
2022/11/13 12:32:29;;;;;;;0.30;0.30;;;12.50;99.90;;;;;;5026842;28;20688;-84
2022/11/13 12:35:06;;;;;;;0.30;0.30;;;12.50;99.90;;;;;;5027586;28;20049;-83
2022/11/13 12:37:54;;;;;;;;;;;12.60;99.90;;;;;;5026378;28;20033;-83
2022/11/13 12:40:31;;;;;;;0.25;0.22;;;12.60;99.90;;;;;;5026781;28;20366;-83
2022/11/13 12:43:12;;;;;;;0.30;0.30;;;12.60;99.90;;;;;;5021523;28;20087;-83
2022/11/13 12:45:38;;;;;;;0.30;0.30;;;12.60;99.90;;;;;;5021948;28;20038;-84
2022/11/13 12:48:12;;;;;;;0.50;0.50;;;12.60;99.90;;;;;;5022612;28;20049;-84
2022/11/13 12:50:38;;;;;;;0.30;0.30;;;12.60;99.90;;;;;;5020758;28;20044;-84
2022/11/13 12:53:08;;;;;;;0.30;0.30;;;12.60;99.90;;;;;;5001616;28;20041;-83
2022/11/13 12:55:36;;;;;;;0.40;0.40;;;12.60;99.90;;;;;;5001390;28;20072;-82
2022/11/13 12:58:19;;;;;;;0.35;0.32;;;12.60;99.90;;;;;;4998436;28;20051;-83
2022/11/13 13:01:12;;;;;;;0.30;0.30;;;12.60;99.90;;;;;;5016789;28;20064;-85
2022/11/13 13:03:50;;;;;;;0.30;0.30;;;12.50;99.90;;;;;;5022394;28;20519;-84
2022/11/13 13:06:25;;;;;;;0.30;0.30;;;12.50;99.90;;;;;;5019719;28;20904;-83
2022/11/13 13:09:11;;;;;;;0.35;0.35;;;12.50;99.90;;;;;;5024215;28;20060;-85
2022/11/13 13:11:55;;;;;;;0.35;0.35;;;12.40;99.90;;;;;;5023439;28;20037;-83
2022/11/13 13:14:20;;;;;;;0.20;0.20;;;12.40;99.90;;;;;;5043054;28;20103;-84